Time;durP1;ratioP1;P1;durP2;ratioP2;P2;SDS_P1;SDS_P2;PMS_P1;PMS_P2;Temp;Humidity;BMP_temperature;BMP_pressure;BME280_temperature;BME280_humidity;BME280_pressure;Samples;Min_cycle;Max_cycle;Signal;HPM_P1;HPM_P2
2023/03/03 00:00:36;;;;;;;;;;;;;;;8.02;76.44;95182.34;5034203;28;1334;-54
2023/03/03 00:03:05;;;;;;;;;;;;;;;8.01;76.66;95176.19;5034349;28;1040;-54
2023/03/03 00:05:32;;;;;;;;;;;;;;;8.05;78.08;95182.06;5034266;28;1143;-54
2023/03/03 00:07:59;;;;;;;;;;;;;;;8.01;76.32;95170.84;5034271;28;959;-54
2023/03/03 00:10:25;;;;;;;;;;;;;;;8.06;76.98;95174.91;5034041;28;1914;-54
2023/03/03 00:12:51;;;;;;;;;;;;;;;8.04;77.32;95169.72;5033947;28;1031;-54
2023/03/03 00:15:19;;;;;;;;;;;;;;;8.11;77.04;95164.66;5033975;28;1039;-54
2023/03/03 00:17:45;;;;;;;;;;;;;;;8.09;77.31;95171.97;5034096;28;1017;-54
2023/03/03 00:20:26;;;;;;;;;;;;;;;8.01;77.37;95165.53;5034048;28;978;-54
2023/03/03 00:22:52;;;;;;;;;;;;;;;8.01;79.62;95160.19;5033852;28;1046;-54
2023/03/03 00:25:18;;;;;;;;;;;;;;;8.04;80.19;95168.88;5033848;28;1033;-54
2023/03/03 00:27:44;;;;;;;;;;;;;;;7.98;79.55;95157.00;5034051;28;963;-54
2023/03/03 00:30:18;;;;;;;;;;;;;;;8.00;79.70;95163.00;5033738;28;1918;-54
2023/03/03 00:32:46;;;;;;;;;;;;;;;8.07;79.36;95164.09;5033753;28;1104;-54
2023/03/03 00:35:24;;;;;;;;;;;;;;;8.01;80.36;95164.69;5033767;28;1057;-54
2023/03/03 00:37:53;;;;;;;;;;;;;;;7.90;80.65;95157.72;5033705;28;1049;-54
2023/03/03 00:40:24;;;;;;;;;;;;;;;7.90;82.06;95160.38;5033869;28;1044;-54
2023/03/03 00:42:58;;;;;;;;;;;;;;;7.84;83.26;95158.28;5033793;28;1030;-54
2023/03/03 00:45:41;;;;;;;;;;;;;;;7.88;81.63;95156.19;5033692;28;1081;-54
2023/03/03 00:48:18;;;;;;;;;;;;;;;7.91;81.26;95156.75;5033658;28;970;-54
2023/03/03 00:50:44;;;;;;;;;;;;;;;7.85;81.15;95159.97;5033403;28;1942;-54
2023/03/03 00:53:12;;;;;;;;;;;;;;;7.77;82.39;95146.53;5033751;28;1029;-54
2023/03/03 00:55:39;;;;;;;;;;;;;;;7.77;83.06;95151.88;5033612;28;1017;-54
2023/03/03 00:58:05;;;;;;;;;;;;;;;7.72;83.65;95146.97;5033555;28;1039;-54
2023/03/03 01:00:32;;;;;;;;;;;;;;;7.67;84.10;95141.25;5033464;28;990;-54
2023/03/03 01:03:00;;;;;;;;;;;;;;;7.63;85.99;95138.03;5033348;28;1093;-54
2023/03/03 01:05:26;;;;;;;;;;;;;;;7.56;85.55;95134.25;5033341;28;1039;-54
2023/03/03 01:07:52;;;;;;;;;;;;;;;7.63;86.02;95137.19;5033285;28;1030;-54
2023/03/03 01:10:18;;;;;;;;;;;;;;;7.72;84.60;95138.13;5037373;28;1995;-54
2023/03/03 01:12:45;;;;;;;;;;;;;;;7.69;85.04;95138.44;5037456;28;970;-55
2023/03/03 01:15:12;;;;;;;;;;;;;;;7.66;85.80;95138.72;5037351;28;963;-54
2023/03/03 01:17:38;;;;;;;;;;;;;;;7.62;85.08;95140.81;5037254;28;1018;-54
2023/03/03 01:20:06;;;;;;;;;;;;;;;7.62;85.73;95132.84;5037431;28;977;-54
2023/03/03 01:22:32;;;;;;;;;;;;;;;7.58;87.55;95134.94;5037376;28;1013;-54
2023/03/03 01:24:58;;;;;;;;;;;;;;;7.56;88.22;95136.91;5037310;28;998;-54
2023/03/03 01:27:24;;;;;;;;;;;;;;;7.51;88.50;95133.88;5037210;28;982;-54
2023/03/03 01:29:50;;;;;;;;;;;;;;;7.54;88.45;95135.38;5037134;28;1029;-55
2023/03/03 01:32:16;;;;;;;;;;;;;;;7.50;88.74;95134.00;5036972;28;1902;-54
2023/03/03 01:34:42;;;;;;;;;;;;;;;7.50;88.71;95123.34;5036942;28;1093;-54
2023/03/03 01:37:08;;;;;;;;;;;;;;;7.48;87.65;95128.00;5037098;28;1027;-55
2023/03/03 01:39:34;;;;;;;;;;;;;;;7.48;86.89;95125.31;5037023;28;1046;-55
2023/03/03 01:42:02;;;;;;;;;;;;;;;7.45;87.50;95121.09;5036924;28;1041;-55
2023/03/03 01:44:28;;;;;;;;;;;;;;;7.44;87.66;95124.78;5036868;28;1044;-55
2023/03/03 01:47:08;;;;;;;;;;;;;;;7.38;88.10;95120.84;5036751;28;1030;-55
2023/03/03 01:49:43;;;;;;;;;;;;;;;7.35;89.09;95117.63;5036685;28;1519;-54
2023/03/03 01:52:12;;;;;;;;;;;;;;;7.40;88.73;95123.38;5019036;28;1976;-54
2023/03/03 01:54:41;;;;;;;;;;;;;;;7.34;89.68;95121.25;5036703;28;1057;-54
2023/03/03 01:57:11;;;;;;;;;;;;;;;7.38;88.95;95114.69;5036602;28;958;-54
2023/03/03 01:59:41;;;;;;;;;;;;;;;7.35;89.02;95115.81;5036508;28;1013;-54
2023/03/03 02:02:07;;;;;;;;;;;;;;;7.42;88.48;95116.94;5036434;28;1046;-54
2023/03/03 02:04:34;;;;;;;;;;;;;;;7.48;88.10;95115.50;5036570;28;1034;-54
2023/03/03 02:07:05;;;;;;;;;;;;;;;7.41;88.91;95117.88;5036373;28;1054;-54
2023/03/03 02:09:55;;;;;;;;;;;;;;;7.39;89.47;95116.38;5036371;28;1046;-54
2023/03/03 02:12:24;;;;;;;;;;;;;;;7.42;88.79;95116.09;5030762;28;1906;-54
2023/03/03 02:14:50;;;;;;;;;;;;;;;7.36;89.87;95113.97;5036200;28;1082;-54
2023/03/03 02:17:16;;;;;;;;;;;;;;;7.29;90.61;95118.22;5036364;28;989;-54
2023/03/03 02:19:42;;;;;;;;;;;;;;;7.28;90.22;95111.19;5035736;28;1082;-54
2023/03/03 02:22:09;;;;;;;;;;;;;;;7.40;89.42;95112.75;5036189;28;1017;-54
2023/03/03 02:24:42;;;;;;;;;;;;;;;7.37;89.37;95110.34;5036101;28;1017;-54
2023/03/03 02:27:08;;;;;;;;;;;;;;;7.32;89.99;95107.28;5036219;28;1264;-54
2023/03/03 02:29:34;;;;;;;;;;;;;;;7.29;90.57;95115.56;5035959;28;1873;-54
2023/03/03 02:32:00;;;;;;;;;;;;;;;7.22;90.76;95105.47;5034783;28;1979;-54
2023/03/03 02:34:26;;;;;;;;;;;;;;;7.24;90.93;95108.81;5034894;28;1065;-54
2023/03/03 02:36:52;;;;;;;;;;;;;;;7.28;90.96;95113.84;5034829;28;1068;-54
2023/03/03 02:39:25;;;;;;;;;;;;;;;7.26;91.15;95106.03;5017123;28;1277;-54
2023/03/03 02:41:59;;;;;;;;;;;;;;;7.21;92.00;95109.13;5034702;28;1067;-54
2023/03/03 02:44:26;;;;;;;;;;;;;;;7.17;92.03;95102.41;5034655;28;1872;-54
2023/03/03 02:46:54;;;;;;;;;;;;;;;7.10;92.72;95106.59;5034684;28;1140;-54
2023/03/03 02:49:22;;;;;;;;;;;;;;;7.12;92.57;95109.13;5034569;28;1527;-54
2023/03/03 02:51:48;;;;;;;;;;;;;;;7.14;91.58;95113.31;5034452;28;1906;-54
2023/03/03 02:54:15;;;;;;;;;;;;;;;7.20;91.21;95110.09;5034676;28;981;-53
2023/03/03 02:56:41;;;;;;;;;;;;;;;7.20;90.79;95112.75;5034421;28;1101;-54
2023/03/03 02:59:08;;;;;;;;;;;;;;;7.18;90.01;95111.22;5034367;28;1054;-54
2023/03/03 03:01:37;;;;;;;;;;;;;;;7.13;89.63;95109.00;5034325;28;1050;-54
2023/03/03 03:04:07;;;;;;;;;;;;;;;7.11;89.25;95113.59;5034348;28;1038;-54
2023/03/03 03:06:33;;;;;;;;;;;;;;;6.95;91.21;95108.00;5034255;28;1097;-54
2023/03/03 03:08:59;;;;;;;;;;;;;;;6.88;91.94;95107.72;5034251;28;1046;-53
2023/03/03 03:11:26;;;;;;;;;;;;;;;6.89;92.51;95105.91;5034304;28;1981;-54
2023/03/03 03:13:52;;;;;;;;;;;;;;;6.92;92.35;95108.28;5034311;28;978;-54
2023/03/03 03:16:18;;;;;;;;;;;;;;;6.86;92.06;95106.19;5034244;28;990;-54
2023/03/03 03:18:44;;;;;;;;;;;;;;;6.86;92.29;95100.88;5034124;28;1132;-54
2023/03/03 03:21:11;;;;;;;;;;;;;;;6.99;91.98;95114.72;5034029;28;1037;-54
2023/03/03 03:23:37;;;;;;;;;;;;;;;7.06;92.35;95107.88;5033944;28;1133;-54
2023/03/03 03:26:03;;;;;;;;;;;;;;;7.14;91.38;95102.69;5034172;28;990;-54
2023/03/03 03:28:30;;;;;;;;;;;;;;;7.18;90.96;95108.56;5034070;28;1064;-54
2023/03/03 03:30:56;;;;;;;;;;;;;;;7.17;91.04;95110.38;4993837;28;1140932;-54
2023/03/03 03:33:22;;;;;;;;;;;;;;;7.10;92.16;95101.28;5017254;28;1597;-54
2023/03/03 03:35:49;;;;;;;;;;;;;;;7.07;91.55;95106.88;5034632;28;1098;-54
2023/03/03 03:38:15;;;;;;;;;;;;;;;7.06;91.19;95107.00;5034904;28;1046;-54
2023/03/03 03:40:41;;;;;;;;;;;;;;;7.07;91.98;95095.41;5034807;28;1018;-54
2023/03/03 03:43:07;;;;;;;;;;;;;;;7.03;92.35;95101.00;5034707;28;1049;-54
2023/03/03 03:45:33;;;;;;;;;;;;;;;6.97;91.76;95095.41;5034622;28;998;-54
2023/03/03 03:47:59;;;;;;;;;;;;;;;7.03;90.45;95101.00;5034493;28;1059;-54
2023/03/03 03:50:25;;;;;;;;;;;;;;;7.00;90.67;95093.31;5034342;28;1906;-54
2023/03/03 03:52:51;;;;;;;;;;;;;;;7.02;90.87;95098.50;5017102;28;970;-54
2023/03/03 03:55:17;;;;;;;;;;;;;;;6.98;91.08;95094.41;5034550;28;1245;-54
2023/03/03 03:57:43;;;;;;;;;;;;;;;6.94;91.57;95093.03;5034303;28;1106;-54
2023/03/03 04:00:10;;;;;;;;;;;;;;;6.95;92.14;95097.38;5034373;28;1045;-54
2023/03/03 04:02:36;;;;;;;;;;;;;;;6.97;92.72;95096.25;5034263;28;1053;-54
2023/03/03 04:05:02;;;;;;;;;;;;;;;6.95;93.25;95092.91;5034093;28;1069;-54
2023/03/03 04:07:28;;;;;;;;;;;;;;;6.98;93.24;95091.75;5034357;28;1014;-54
2023/03/03 04:09:54;;;;;;;;;;;;;;;6.82;92.64;95071.06;5034101;28;1106;-54
2023/03/03 04:12:20;;;;;;;;;;;;;;;7.00;93.20;95090.66;5034171;28;1993;-53
2023/03/03 04:14:47;;;;;;;;;;;;;;;7.01;92.95;95097.63;5034132;28;1133;-53
2023/03/03 04:17:20;;;;;;;;;;;;;;;7.08;92.95;95097.09;5033969;28;1042;-53
2023/03/03 04:19:46;;;;;;;;;;;;;;;6.92;92.42;95100.31;5033887;28;987;-53
2023/03/03 04:22:15;;;;;;;;;;;;;;;6.87;93.81;95091.91;5033919;28;1045;-53
2023/03/03 04:24:41;;;;;;;;;;;;;;;6.79;94.73;95100.56;5034019;28;1037;-53
2023/03/03 04:27:10;;;;;;;;;;;;;;;6.83;94.84;95102.84;5033991;28;1197;-53
2023/03/03 04:29:36;;;;;;;;;;;;;;;6.82;94.87;95098.47;5033902;28;1195;-53
2023/03/03 04:32:02;;;;;;;;;;;;;;;6.82;94.47;95100.31;5033533;28;1914;-53
2023/03/03 04:34:28;;;;;;;;;;;;;;;6.81;94.56;95102.13;5033550;28;1030;-53
2023/03/03 04:36:54;;;;;;;;;;;;;;;6.81;94.54;95104.78;5033897;28;1042;-53
2023/03/03 04:39:20;;;;;;;;;;;;;;;6.79;94.72;95098.78;5033686;28;1062;-53
2023/03/03 04:41:46;;;;;;;;;;;;;;;6.76;95.56;95101.69;5033706;28;970;-53
2023/03/03 04:44:12;;;;;;;;;;;;;;;6.84;95.30;95096.53;5033525;28;1040;-53
2023/03/03 04:46:38;;;;;;;;;;;;;;;6.88;95.41;95104.22;5033515;28;1056;-53
2023/03/03 04:49:07;;;;;;;;;;;;;;;6.89;95.13;95098.78;5033437;28;982;-53
2023/03/03 04:51:33;;;;;;;;;;;;;;;6.91;95.29;95104.78;5033407;28;1906;-52
2023/03/03 04:53:59;;;;;;;;;;;;;;;6.94;95.15;95106.31;5033654;28;1010;-53
2023/03/03 04:56:27;;;;;;;;;;;;;;;6.81;95.29;95107.44;5033416;28;1014;-53
2023/03/03 04:58:53;;;;;;;;;;;;;;;6.69;95.83;95107.72;5033509;28;1046;-53
2023/03/03 05:01:19;;;;;;;;;;;;;;;6.64;96.06;95105.47;5033370;28;926;-53
2023/03/03 05:03:45;;;;;;;;;;;;;;;6.58;96.00;95104.22;5033626;28;1090;-53
2023/03/03 05:06:11;;;;;;;;;;;;;;;6.55;95.60;95106.31;5033374;28;1109;-54
2023/03/03 05:08:37;;;;;;;;;;;;;;;6.59;95.72;95105.88;5033505;28;986;-53
2023/03/03 05:11:03;;;;;;;;;;;;;;;6.50;95.87;95105.88;5033245;28;1910;-53
2023/03/03 05:13:30;;;;;;;;;;;;;;;6.44;96.34;95107.25;5033295;28;1105;-53
2023/03/03 05:15:56;;;;;;;;;;;;;;;6.42;96.54;95106.56;5033277;28;966;-53
2023/03/03 05:18:23;;;;;;;;;;;;;;;6.44;95.76;95113.41;5033489;28;1061;-53
2023/03/03 05:20:50;;;;;;;;;;;;;;;6.43;95.88;95106.41;5033438;28;1069;-53
2023/03/03 05:23:16;;;;;;;;;;;;;;;6.47;96.08;95109.66;5033213;28;1074;-53
2023/03/03 05:25:42;;;;;;;;;;;;;;;6.51;94.91;95116.38;5033325;28;1049;-53
2023/03/03 05:28:09;;;;;;;;;;;;;;;6.51;95.57;95113.72;5033237;28;994;-53
2023/03/03 05:30:36;;;;;;;;;;;;;;;6.52;95.13;95118.03;5032873;28;1985;-53
2023/03/03 05:33:02;;;;;;;;;;;;;;;6.52;94.08;95117.19;5033100;28;1054;-53
2023/03/03 05:35:29;;;;;;;;;;;;;;;6.52;93.27;95114.53;5033105;28;1987;-53
2023/03/03 05:37:56;;;;;;;;;;;;;;;6.58;93.17;95113.97;5033035;28;1102;-53
2023/03/03 05:40:23;;;;;;;;;;;;;;;6.61;92.38;95116.38;5033157;28;1205;-53
2023/03/03 05:42:50;;;;;;;;;;;;;;;6.61;92.29;95113.72;5033098;28;1065;-53
2023/03/03 05:45:19;;;;;;;;;;;;;;;6.63;91.82;95119.72;5032990;28;978;-53
2023/03/03 05:47:45;;;;;;;;;;;;;;;6.70;91.56;95115.56;5032967;28;1517;-53
2023/03/03 05:50:12;;;;;;;;;;;;;;;6.60;91.09;95120.84;5033074;28;1910;-53
2023/03/03 05:52:38;;;;;;;;;;;;;;;6.59;91.17;95124.47;5033095;28;955;-53
2023/03/03 05:55:04;;;;;;;;;;;;;;;6.58;92.14;95129.91;5034624;28;1039;-53
2023/03/03 05:57:30;;;;;;;;;;;;;;;6.59;92.08;95126.31;5036651;28;981;-53
2023/03/03 05:59:56;;;;;;;;;;;;;;;6.69;91.88;95127.13;5036494;28;1028;-52
2023/03/03 06:02:22;;;;;;;;;;;;;;;6.75;92.52;95126.56;5036705;28;1028;-53
2023/03/03 06:04:48;;;;;;;;;;;;;;;6.75;91.57;95126.56;5036654;28;949;-53
2023/03/03 06:07:14;;;;;;;;;;;;;;;6.77;91.32;95129.97;5036507;28;975;-54
2023/03/03 06:09:40;;;;;;;;;;;;;;;6.72;90.90;95128.69;5036351;28;1100;-54
2023/03/03 06:12:06;;;;;;;;;;;;;;;6.88;90.44;95138.78;5036237;28;2345;-54
2023/03/03 06:14:32;;;;;;;;;;;;;;;6.97;90.11;95129.97;5036270;28;1053;-54
2023/03/03 06:16:58;;;;;;;;;;;;;;;7.03;91.23;95134.72;5036477;28;1050;-54
2023/03/03 06:19:24;;;;;;;;;;;;;;;6.99;91.37;95136.00;5036350;28;982;-54
2023/03/03 06:21:50;;;;;;;;;;;;;;;7.02;91.98;95141.03;5036007;28;1109;-53
2023/03/03 06:24:16;;;;;;;;;;;;;;;6.95;88.01;95138.09;5036103;28;1090;-54
2023/03/03 06:26:42;;;;;;;;;;;;;;;6.92;90.65;95145.50;5036074;28;1013;-53
2023/03/03 06:29:09;;;;;;;;;;;;;;;6.91;91.10;95144.66;5035956;28;1022;-53
2023/03/03 06:31:35;;;;;;;;;;;;;;;6.98;90.61;95151.09;5018237;28;1910;-54
2023/03/03 06:34:01;;;;;;;;;;;;;;;7.04;89.63;95147.88;5035922;28;1104;-53
2023/03/03 06:36:27;;;;;;;;;;;;;;;6.94;89.67;95148.84;5036021;28;1033;-52
2023/03/03 06:38:53;;;;;;;;;;;;;;;6.88;90.20;95144.94;5035889;28;986;-54
2023/03/03 06:41:19;;;;;;;;;;;;;;;6.85;91.94;95142.56;5035745;28;1153;-54
2023/03/03 06:43:45;;;;;;;;;;;;;;;6.88;91.53;95152.91;5035812;28;1029;-53
2023/03/03 06:46:11;;;;;;;;;;;;;;;6.96;91.55;95153.06;5035576;28;982;-53
2023/03/03 06:48:39;;;;;;;;;;;;;;;6.78;91.38;95150.22;5035751;28;1033;-53
2023/03/03 06:51:15;;;;;;;;;;;;;;;6.89;92.31;95151.09;5035462;28;1902;-53
2023/03/03 06:53:41;;;;;;;;;;;;;;;6.81;93.35;95149.97;5035490;28;1089;-53
2023/03/03 06:56:08;;;;;;;;;;;;;;;7.00;93.61;95154.47;5035507;28;974;-54
2023/03/03 06:58:34;;;;;;;;;;;;;;;7.04;93.37;95155.03;5035319;28;1023;-54
2023/03/03 07:01:01;;;;;;;;;;;;;;;7.02;94.71;95159.66;5035627;28;970;-54
2023/03/03 07:03:32;;;;;;;;;;;;;;;7.11;94.28;95158.78;5035288;28;1090;-54
2023/03/03 07:05:58;;;;;;;;;;;;;;;7.16;93.58;95158.38;5034130;28;1109;-54
2023/03/03 07:08:28;;;;;;;;;;;;;;;7.13;92.49;95163.97;5035360;28;1053;-54
2023/03/03 07:10:55;;;;;;;;;;;;;;;7.04;90.23;95157.69;5035261;28;1906;-54
2023/03/03 07:13:25;;;;;;;;;;;;;;;7.17;92.21;95158.25;5035168;28;1045;-54
2023/03/03 07:15:52;;;;;;;;;;;;;;;7.18;92.74;95161.75;5035313;28;1212;-54
2023/03/03 07:18:39;;;;;;;;;;;;;;;7.32;91.63;95160.47;5035206;28;1004;-54
2023/03/03 07:21:22;;;;;;;;;;;;;;;7.21;91.35;95162.31;5034903;28;1915;-54
2023/03/03 07:23:49;;;;;;;;;;;;;;;7.18;91.07;95156.41;5035180;28;1009;-53
2023/03/03 07:26:21;;;;;;;;;;;;;;;7.17;91.41;95157.38;5035153;28;1065;-54
2023/03/03 07:28:58;;;;;;;;;;;;;;;7.14;90.56;95161.19;5034745;28;1137;-53
2023/03/03 07:31:26;;;;;;;;;;;;;;;7.15;92.59;95157.56;5034615;28;1989;-53
2023/03/03 07:33:52;;;;;;;;;;;;;;;7.35;91.51;95166.34;5034723;28;966;-53
2023/03/03 07:36:39;;;;;;;;;;;;;;;7.40;92.29;95164.09;5034649;28;919;-53
2023/03/03 07:39:17;;;;;;;;;;;;;;;7.48;90.13;95160.75;5034557;28;1018;-54
2023/03/03 07:41:43;;;;;;;;;;;;;;;7.43;90.60;95157.66;5034527;28;1117;-54
2023/03/03 07:44:17;;;;;;;;;;;;;;;7.34;90.42;95154.03;5034548;28;1058;-54
2023/03/03 07:46:46;;;;;;;;;;;;;;;7.31;91.05;95153.47;5034573;28;1048;-54
2023/03/03 07:49:18;;;;;;;;;;;;;;;7.31;90.73;95156.97;5034658;28;1065;-54
2023/03/03 07:51:44;;;;;;;;;;;;;;;7.40;90.56;95155.31;5034348;28;1995;-54
2023/03/03 07:54:17;;;;;;;;;;;;;;;7.30;89.10;95149.97;5034486;28;1041;-54
2023/03/03 07:56:43;;;;;;;;;;;;;;;7.34;90.70;95150.53;5034376;28;1073;-54
2023/03/03 07:59:23;;;;;;;;;;;;;;;7.22;91.81;95150.66;5034223;28;1044;-54
2023/03/03 08:01:57;;;;;;;;;;;;;;;7.12;92.56;95152.50;5034435;28;1029;-54
2023/03/03 08:04:23;;;;;;;;;;;;;;;7.05;92.48;95148.72;5034182;28;1034;-54
2023/03/03 08:06:51;;;;;;;;;;;;;;;7.14;92.17;95147.88;5034084;28;1078;-54
2023/03/03 08:09:17;;;;;;;;;;;;;;;7.26;90.84;95153.06;5034100;28;989;-54
2023/03/03 08:11:53;;;;;;;;;;;;;;;7.19;92.56;95147.44;5033972;28;1994;-54
2023/03/03 08:14:29;;;;;;;;;;;;;;;7.41;92.04;95147.16;5034270;28;1082;-54
2023/03/03 08:16:56;;;;;;;;;;;;;;;7.32;91.17;95153.34;5033821;28;1142;-54
2023/03/03 08:19:22;;;;;;;;;;;;;;;7.32;91.04;95145.38;5033956;28;1065;-54
2023/03/03 08:21:48;;;;;;;;;;;;;;;7.18;91.40;95145.78;5034001;28;985;-54
2023/03/03 08:24:14;;;;;;;;;;;;;;;7.34;91.59;95147.88;5033844;28;966;-54
2023/03/03 08:26:41;;;;;;;;;;;;;;;7.29;90.65;95147.47;5033809;28;1089;-54
2023/03/03 08:29:07;;;;;;;;;;;;;;;7.40;90.88;95149.97;5033795;28;1220;-54
2023/03/03 08:31:33;;;;;;;;;;;;;;;7.34;89.46;95145.19;5033498;28;1902;-54
2023/03/03 08:33:59;;;;;;;;;;;;;;;7.41;89.62;95151.66;5033845;28;1038;-54
2023/03/03 08:36:25;;;;;;;;;;;;;;;7.39;88.15;95145.63;5033718;28;1069;-54
2023/03/03 08:38:51;;;;;;;;;;;;;;;7.27;89.08;95149.44;5033464;28;1046;-54
2023/03/03 08:41:17;;;;;;;;;;;;;;;7.17;88.65;95150.28;5033838;28;1064;-54
2023/03/03 08:43:44;;;;;;;;;;;;;;;7.41;88.34;95146.31;5033795;28;982;-54
2023/03/03 08:46:10;;;;;;;;;;;;;;;7.43;88.97;95153.16;5033569;28;1050;-54
2023/03/03 08:48:37;;;;;;;;;;;;;;;7.53;89.56;95147.88;5033643;28;981;-54
2023/03/03 08:51:03;;;;;;;;;;;;;;;7.57;88.63;95146.59;5033480;28;1914;-54
2023/03/03 08:53:32;;;;;;;;;;;;;;;7.42;87.84;95154.16;5033428;28;1125;-54
2023/03/03 08:55:58;;;;;;;;;;;;;;;7.48;86.94;95151.94;5033662;28;1064;-54
2023/03/03 08:58:24;;;;;;;;;;;;;;;7.43;87.64;95152.34;5033589;28;1061;-54
2023/03/03 09:00:50;;;;;;;;;;;;;;;7.45;87.50;95153.03;5033596;28;1359;-54
2023/03/03 09:03:16;;;;;;;;;;;;;;;7.53;88.19;95152.31;5033406;28;1046;-54
2023/03/03 09:05:43;;;;;;;;;;;;;;;7.62;86.73;95149.63;5033377;28;1041;-54
2023/03/03 09:08:10;;;;;;;;;;;;;;;7.56;86.58;95150.22;5033238;28;1041;-54
2023/03/03 09:10:36;;;;;;;;;;;;;;;7.49;87.53;95153.59;5033262;28;1914;-54
2023/03/03 09:13:06;;;;;;;;;;;;;;;7.40;87.89;95155.31;5033283;28;1925;-54
2023/03/03 09:15:33;;;;;;;;;;;;;;;7.43;87.79;95158.50;5033379;28;1065;-54
2023/03/03 09:18:21;;;;;;;;;;;;;;;7.52;86.73;95153.31;5033241;28;1113;-54
2023/03/03 09:20:47;;;;;;;;;;;;;;;7.60;86.27;95151.59;5033192;28;1041;-54
2023/03/03 09:26:45;;;;;;;;;;;;;;;7.65;87.20;95153.03;5033246;28;975;-54
2023/03/03 09:29:14;;;;;;;;;;;;;;;7.65;86.33;95145.03;5033491;28;1061;-54
2023/03/03 09:31:45;;;;;;;;;;;;;;;7.52;85.72;95153.31;5036825;28;1979;-54
2023/03/03 09:34:23;;;;;;;;;;;;;;;7.62;87.08;95156.78;5034168;28;1421;-54
2023/03/03 09:36:53;;;;;;;;;;;;;;;7.71;87.12;95155.09;5037018;28;1289;-54
2023/03/03 09:39:24;;;;;;;;;;;;;;;7.77;86.44;95149.19;5036859;28;978;-54
2023/03/03 09:42:08;;;;;;;;;;;;;;;7.73;86.63;95150.47;5037127;28;1010;-54
2023/03/03 09:44:34;;;;;;;;;;;;;;;7.80;86.08;95154.25;5036538;28;1121;-54
2023/03/03 09:47:19;;;;;;;;;;;;;;;7.63;86.00;95156.66;5036900;28;978;-54
2023/03/03 09:49:57;;;;;;;;;;;;;;;7.59;85.39;95154.44;5036689;28;1097;-54
2023/03/03 09:52:32;;;;;;;;;;;;;;;7.82;84.14;95150.44;5036802;28;1983;-54
2023/03/03 09:55:04;;;;;;;;;;;;;;;7.84;82.93;95150.31;5036544;28;1220;-54
2023/03/03 09:57:43;;;;;;;;;;;;;;;7.79;85.86;95152.56;5036716;28;1037;-54
2023/03/03 10:00:18;;;;;;;;;;;;;;;7.78;85.27;95148.22;5036598;28;973;-54
2023/03/03 10:02:50;;;;;;;;;;;;;;;7.71;83.57;95147.94;5036811;28;1367;-54
2023/03/03 10:05:35;;;;;;;;;;;;;;;7.79;84.97;95156.03;5036389;28;1055;-54
2023/03/03 10:08:21;;;;;;;;;;;;;;;7.97;84.07;95155.31;5036512;28;1076;-55
2023/03/03 10:10:52;;;;;;;;;;;;;;;8.01;83.42;95154.03;5036132;28;1991;-55
2023/03/03 10:13:25;;;;;;;;;;;;;;;8.11;85.46;95156.66;5036335;28;1873;-55
2023/03/03 10:15:57;;;;;;;;;;;;;;;8.10;84.96;95157.63;5036207;28;1394;-55
2023/03/03 10:18:28;;;;;;;;;;;;;;;8.16;83.19;95149.09;5036155;28;1034;-55
2023/03/03 10:21:01;;;;;;;;;;;;;;;8.16;82.33;95143.75;5036315;28;1045;-55
2023/03/03 10:23:52;;;;;;;;;;;;;;;8.17;81.29;95150.75;5036023;28;1030;-55
2023/03/03 10:26:24;;;;;;;;;;;;;;;8.18;82.96;95152.44;5035970;28;1090;-55
2023/03/03 10:29:09;;;;;;;;;;;;;;;8.24;84.92;95141.19;5036111;28;1065;-55
2023/03/03 10:31:48;;;;;;;;;;;;;;;8.28;81.57;95141.75;5035717;28;1946;-55
2023/03/03 10:34:32;;;;;;;;;;;;;;;8.31;85.18;95134.31;5035670;28;1214;-55
2023/03/03 10:37:12;;;;;;;;;;;;;;;8.33;83.95;95135.00;5035839;28;1038;-55
2023/03/03 10:39:54;;;;;;;;;;;;;;;8.15;84.23;95134.91;5035887;28;1016;-55
2023/03/03 10:42:21;;;;;;;;;;;;;;;8.32;83.45;95121.81;5035671;28;1037;-55
2023/03/03 10:44:50;;;;;;;;;;;;;;;8.35;82.22;95125.03;5018036;28;1132;-54
2023/03/03 10:47:16;;;;;;;;;;;;;;;8.37;84.72;95116.88;5035831;28;1013;-54
2023/03/03 10:50:01;;;;;;;;;;;;;;;8.38;82.89;95119.41;5035794;28;1045;-54
2023/03/03 10:52:30;;;;;;;;;;;;;;;8.46;82.34;95108.03;5035583;28;1910;-54
2023/03/03 10:55:25;;;;;;;;;;;;;;;8.73;82.42;95112.50;5035214;28;1445;-54
2023/03/03 10:58:10;;;;;;;;;;;;;;;8.53;82.74;95111.75;4998805;28;1234;-54
2023/03/03 11:00:51;;;;;;;;;;;;;;;8.70;83.74;95107.44;5035350;28;1047;-54
2023/03/03 11:03:37;;;;;;;;;;;;;;;8.70;81.75;95103.94;5035376;28;990;-54
2023/03/03 11:06:12;;;;;;;;;;;;;;;8.61;82.84;95097.69;5035084;28;1578;-54
2023/03/03 11:08:48;;;;;;;;;;;;;;;8.70;81.64;95096.78;5035412;28;1049;-54
2023/03/03 11:11:23;;;;;;;;;;;;;;;8.69;79.84;95099.59;5035198;28;1906;-54
2023/03/03 11:13:49;;;;;;;;;;;;;;;8.52;81.92;95094.09;5035397;28;974;-54
2023/03/03 11:16:34;;;;;;;;;;;;;;;8.63;82.65;95090.38;5034868;28;1167;-54
2023/03/03 11:19:15;;;;;;;;;;;;;;;8.42;80.23;95087.16;5035161;28;958;-54
2023/03/03 11:22:04;;;;;;;;;;;;;;;8.30;81.00;95090.00;5035128;28;970;-55
2023/03/03 11:24:30;;;;;;;;;;;;;;;8.34;84.27;95086.03;5034998;28;1410;-55
2023/03/03 11:27:02;;;;;;;;;;;;;;;8.56;81.78;95092.00;5034658;28;1058;-54
2023/03/03 11:29:47;;;;;;;;;;;;;;;8.48;83.71;95087.41;5034434;28;1034;-55
2023/03/03 11:32:24;;;;;;;;;;;;;;;8.39;81.45;95088.28;5034499;28;1906;-54
2023/03/03 11:35:05;;;;;;;;;;;;;;;8.34;82.74;95086.03;5034821;28;1109;-55
2023/03/03 11:37:31;;;;;;;;;;;;;;;8.50;82.43;95084.56;5034411;28;1101;-54
2023/03/03 11:40:01;;;;;;;;;;;;;;;8.38;82.84;95086.56;5034710;28;1026;-54
2023/03/03 11:42:34;;;;;;;;;;;;;;;8.36;82.14;95084.06;5034789;28;977;-55
2023/03/03 11:45:16;;;;;;;;;;;;;;;8.45;83.36;95081.53;5034674;28;920;-55
2023/03/03 11:47:54;;;;;;;;;;;;;;;8.53;83.00;95081.63;5034534;28;1121;-54
2023/03/03 11:50:24;;;;;;;;;;;;;;;8.60;84.16;95077.38;5034646;28;1044;-54
2023/03/03 11:52:57;;;;;;;;;;;;;;;8.64;81.71;95070.75;5033830;28;1065;-53
2023/03/03 11:55:23;;;;;;;;;;;;;;;8.50;81.32;95073.91;5034360;28;1094;-53
2023/03/03 11:58:04;;;;;;;;;;;;;;;8.53;84.13;95065.63;5034590;28;979;-54
2023/03/03 12:00:38;;;;;;;;;;;;;;;8.63;83.50;95063.72;5034460;28;1046;-52
2023/03/03 12:03:13;;;;;;;;;;;;;;;8.59;81.54;95073.00;5034237;28;1062;-55
2023/03/03 12:05:51;;;;;;;;;;;;;;;8.45;82.26;95068.22;5034247;28;1045;-54
2023/03/03 12:08:36;;;;;;;;;;;;;;;8.54;81.56;95067.31;5034196;28;1038;-55
2023/03/03 12:11:09;;;;;;;;;;;;;;;8.53;81.97;95066.47;5034170;28;1909;-54
2023/03/03 12:13:48;;;;;;;;;;;;;;;8.60;84.87;95072.88;5034199;28;1045;-54
2023/03/03 12:16:23;;;;;;;;;;;;;;;8.60;82.77;95072.88;5033926;28;1047;-55
2023/03/03 12:19:01;;;;;;;;;;;;;;;8.59;82.82;95068.53;5034255;28;1021;-55
2023/03/03 12:21:49;;;;;;;;;;;;;;;8.60;82.12;95067.53;5033983;28;1097;-55
2023/03/03 12:24:21;;;;;;;;;;;;;;;8.63;84.13;95068.22;5033914;28;1070;-54
2023/03/03 12:26:51;;;;;;;;;;;;;;;8.68;82.59;95060.63;5033786;28;1327;-55
2023/03/03 12:29:22;;;;;;;;;;;;;;;8.83;83.04;95056.44;5034005;28;1113;-55
2023/03/03 12:31:48;;;;;;;;;;;;;;;8.94;81.36;95066.03;5033635;28;1914;-55
2023/03/03 12:34:14;;;;;;;;;;;;;;;8.93;81.50;95059.84;5033907;28;1025;-55
2023/03/03 12:37:16;;;;;;;;;;;;;;;8.76;81.17;95064.22;5032258;28;2523;-55
2023/03/03 12:39:42;;;;;;;;;;;;;;;8.70;82.69;95053.31;4972477;28;1249;-55
2023/03/03 12:42:17;;;;;;;;;;;;;;;8.92;82.61;95058.19;5021474;28;951;-55
2023/03/03 12:45:01;;;;;;;;;;;;;;;9.04;82.70;95056.09;5033850;28;1042;-55
2023/03/03 12:47:32;;;;;;;;;;;;;;;8.96;81.21;95051.53;5033349;28;1058;-55
2023/03/03 12:50:17;;;;;;;;;;;;;;;8.94;82.15;95058.03;5033244;28;1078;-55
2023/03/03 12:52:52;;;;;;;;;;;;;;;8.92;81.98;95049.34;5033254;28;1906;-55
2023/03/03 12:55:33;;;;;;;;;;;;;;;8.97;82.08;95050.56;5033413;28;1645;-55
2023/03/03 12:57:59;;;;;;;;;;;;;;;9.08;83.43;95056.66;5033290;28;1078;-55
2023/03/03 13:00:44;;;;;;;;;;;;;;;9.35;81.97;95048.53;5033647;28;995;-55
2023/03/03 13:03:13;;;;;;;;;;;;;;;9.62;81.36;95052.03;5033679;28;1900;-55
2023/03/03 13:05:46;;;;;;;;;;;;;;;9.80;80.58;95045.78;5037716;28;1053;-55
2023/03/03 13:08:21;;;;;;;;;;;;;;;9.97;79.76;95042.19;5038174;28;1049;-55
2023/03/03 13:10:55;;;;;;;;;;;;;;;10.01;78.79;95048.06;5036791;28;1914;-55
2023/03/03 13:13:26;;;;;;;;;;;;;;;9.72;78.89;95041.25;5037444;28;1101;-55
2023/03/03 13:15:52;;;;;;;;;;;;;;;9.62;78.33;95045.84;5037585;28;1034;-55
2023/03/03 13:18:24;;;;;;;;;;;;;;;9.43;79.16;95047.75;5037444;28;1002;-55
2023/03/03 13:20:59;;;;;;;;;;;;;;;9.30;80.15;95050.81;5037354;28;1109;-55
2023/03/03 13:23:37;;;;;;;;;;;;;;;9.45;80.34;95043.09;5037320;28;962;-55
2023/03/03 13:26:16;;;;;;;;;;;;;;;9.24;79.34;95053.25;5037385;28;922;-54
2023/03/03 13:28:53;;;;;;;;;;;;;;;9.19;81.31;95048.41;5037180;28;1105;-55